»·PEaware :: ASA103 KFAT-KSNA

ASA103 :: KFAT-KSNA

FLIGHT INFORMATION

Flight Status: Arrived
Operator:
Alaska Airlines
More flights by this operator :: More flights under this callsign
Pilot: Andrew C. (28419)
Aircraft: BOEING 737-800
(B738)
More flights by this aircraft type
Origin: KFAT Fresno Yosemite Intl
United States
Destination: KSNA John Wayne-Orange Co
United States
More flights between these airports :: More routes between these airports
Route: +BULL3 NTELL EHF FIM TANDY OHSEA2
File this flight plan on PilotEdge
Remarks: RMK / SIMBRIEF
Altitude:
(Current/Filed)
37,000ft
Speed:
(Current/Filed)
448kts
Departed: 10-Jun-20 08:07 PM
Arrived: 10-Jun-20 08:53 PM
Distance/Time
Traveled:
207nm/0:45
Distance/Time
To Go:
Arrived

Flight Plot

Page will automatically refresh every two minutes.

Flight plan parsing failed; only flown route is shown


Map Options




Map Legend


Flown Route
Filed Route
Departure Airport
Arrival Airport
Navaid (VOR, NDB)
Fix

Horizontal Profiles

Position Reports

Time Latitude Longitude Heading Altitude Ground
Speed
10-Jun-20 19:38 36.771554 -119.719170 126 340ft 0kts
10-Jun-20 19:39 36.771554 -119.719170 126 340ft 0kts
10-Jun-20 19:40 36.771554 -119.719170 126 340ft 0kts
10-Jun-20 19:41 36.771554 -119.719170 126 340ft 0kts
10-Jun-20 19:42 36.771554 -119.719170 126 340ft 0kts
10-Jun-20 19:43 36.771554 -119.719170 126 340ft 0kts
10-Jun-20 19:44 36.771554 -119.719170 126 340ft 0kts
10-Jun-20 19:45 36.771554 -119.719170 126 340ft 0kts
10-Jun-20 19:46 36.771554 -119.719170 126 340ft 0kts
10-Jun-20 19:47 36.771554 -119.719170 126 340ft 0kts
10-Jun-20 19:48 36.771554 -119.719170 126 340ft 0kts
10-Jun-20 19:49 36.771554 -119.719170 126 340ft 0kts
10-Jun-20 19:50 36.771554 -119.719170 126 340ft 0kts
10-Jun-20 19:51 36.771554 -119.719170 126 340ft 0kts
10-Jun-20 19:52 36.771554 -119.719170 126 340ft 0kts
10-Jun-20 19:53 36.771554 -119.719170 126 340ft 0kts
10-Jun-20 19:54 36.771554 -119.719170 126 340ft 0kts
10-Jun-20 19:55 36.771554 -119.719170 126 340ft 0kts
10-Jun-20 19:56 36.771554 -119.719170 126 340ft 0kts
10-Jun-20 19:57 36.771554 -119.719170 126 340ft 0kts
10-Jun-20 19:58 36.771555 -119.719170 126 340ft 0kts
10-Jun-20 19:59 36.771835 -119.719653 109 340ft 2kts
10-Jun-20 20:00 36.771677 -119.720165 33 340ft 0kts
10-Jun-20 20:01 36.771676 -119.720165 33 340ft 0kts
10-Jun-20 20:02 36.773196 -119.718059 84 340ft 12kts
10-Jun-20 20:03 36.771182 -119.714118 126 340ft 28kts
10-Jun-20 20:04 36.767614 -119.705137 83 340ft 16kts
10-Jun-20 20:05 36.768086 -119.704394 35 340ft 0kts
10-Jun-20 20:06 36.771940 -119.708976 305 340ft 118kts
10-Jun-20 20:07 36.799222 -119.762224 294 3457ft 242kts
10-Jun-20 20:08 36.760680 -119.819122 166 8217ft 287kts
10-Jun-20 20:09 36.681745 -119.778247 155 11937ft 344kts
10-Jun-20 20:10 36.594552 -119.726800 154 13053ft 346kts
10-Jun-20 20:11 36.504284 -119.670190 154 16756ft 371kts
10-Jun-20 20:12 36.409160 -119.611184 155 20108ft 395kts
10-Jun-20 20:13 36.308136 -119.552432 158 22934ft 413kts
10-Jun-20 20:14 36.205338 -119.495019 158 22984ft 406kts
10-Jun-20 20:15 36.101890 -119.437340 158 22984ft 408kts
10-Jun-20 20:16 35.998734 -119.380260 158 22984ft 407kts
10-Jun-20 20:17 35.898985 -119.325151 158 22985ft 405kts
10-Jun-20 20:18 35.795671 -119.268170 158 22984ft 404kts
10-Jun-20 20:19 35.692340 -119.211923 163 22984ft 403kts
10-Jun-20 20:21 35.583951 -119.178821 169 22984ft 401kts
10-Jun-20 20:22 35.475198 -119.147601 169 22994ft 401kts
10-Jun-20 20:23 35.365860 -119.116262 169 23038ft 406kts
10-Jun-20 20:24 35.252897 -119.083976 169 23048ft 417kts
10-Jun-20 20:25 35.139738 -119.051653 169 23048ft 417kts
10-Jun-20 20:26 35.027052 -119.019515 168 23057ft 416kts
10-Jun-20 20:27 34.914026 -118.987333 168 23078ft 417kts
10-Jun-20 20:28 34.802291 -118.955562 168 23076ft 417kts
10-Jun-20 20:29 34.688870 -118.923339 168 23050ft 417kts
10-Jun-20 20:30 34.575419 -118.891181 168 23061ft 418kts
10-Jun-20 20:31 34.462138 -118.859118 168 23071ft 418kts
10-Jun-20 20:32 34.348128 -118.826913 168 23081ft 413kts
10-Jun-20 20:33 34.238535 -118.795973 168 23093ft 403kts
10-Jun-20 20:34 34.129707 -118.765305 168 22350ft 388kts
10-Jun-20 20:35 34.026074 -118.736158 168 20470ft 382kts
10-Jun-20 20:36 33.926091 -118.708074 168 18200ft 361kts
10-Jun-20 20:37 33.829291 -118.680951 167 15953ft 352kts
10-Jun-20 20:38 33.736407 -118.655043 165 13934ft 348kts
10-Jun-20 20:39 33.644416 -118.622840 160 12199ft 338kts
10-Jun-20 20:40 33.573794 -118.561207 126 10641ft 303kts
10-Jun-20 20:41 33.531484 -118.478299 114 9268ft 282kts
10-Jun-20 20:41 33.520859 -118.402591 92 8128ft 275kts
10-Jun-20 20:43 33.544130 -118.302261 68 6511ft 273kts
10-Jun-20 20:43 33.567157 -118.231942 68 5340ft 268kts
10-Jun-20 20:44 33.594175 -118.148966 68 5005ft 267kts
10-Jun-20 20:45 33.619728 -118.067120 69 4441ft 243kts
10-Jun-20 20:46 33.651238 -118.004412 48 4282ft 208kts
10-Jun-20 20:47 33.686199 -117.956474 47 4032ft 203kts
10-Jun-20 20:48 33.720714 -117.909318 47 3813ft 196kts
10-Jun-20 20:49 33.748123 -117.853682 110 2249ft 170kts
10-Jun-20 20:50 33.711912 -117.845608 209 787ft 133kts
10-Jun-20 20:51 33.681770 -117.864990 207 112ft 118kts
10-Jun-20 20:52 33.669293 -117.871722 128 67ft 21kts
10-Jun-20 20:53 33.673882 -117.866611 27 66ft 24kts
10-Jun-20 20:54 33.675373 -117.864881 117 67ft 0kts
10-Jun-20 20:55 33.675373 -117.864881 117 67ft 0kts
10-Jun-20 20:56 33.675373 -117.864881 117 67ft 0kts
10-Jun-20 20:57 33.675373 -117.864881 117 67ft 0kts
10-Jun-20 20:58 33.675373 -117.864881 117 67ft 0kts
10-Jun-20 20:59 33.675373 -117.864881 117 67ft 0kts

Navigation Log

Ident Type
Flight plan parsing failed, navigation log unavailable